Řízení letového provozu České republiky  
Aktualizace dat:  27.02.2024 12:44:39 UTC English version
   METEO Zobrazení stránky:  27.02.2024 12:44:40 UTC  
vysvětlivky
METAR EDAC 271220Z 35006KT 9999 OVC008 05/03 Q1015=
METAR EDDB 271220Z AUTO 36008KT 9999 OVC011 06/04 Q1015 NOSIG=
METAR EDDC 271220Z AUTO 31005KT 0600 0550 R22/1000U FG OVC001 04/04 Q1014 NOSIG=
METAR EDDE 271220Z AUTO 03008KT 360V060 9999 OVC010 05/03 Q1015 NOSIG=
METAR EDDF 271220Z AUTO 02012KT 350V050 CAVOK 11/04 Q1014=
METAR COR EDDM 271220Z AUTO VRB01KT CAVOK 07/03 Q1010 NOSIG=
METAR COR EDDN 271220Z AUTO 01006KT 330V050 9999 FEW026 10/04 Q1012 NOSIG=
METAR EDDP 271220Z AUTO 34012KT 8000 OVC005 04/03 Q1015 NOSIG=
METAR EDQM 271220Z 02010KT 0150 R26/1100N FG VV/// 02/02 Q1013=
METAR EPBY 271230Z 34006KT 310V010 5000 BR OVC003 08/07 Q1014=
METAR EPGD 271230Z 01005KT 340V040 3300 BR OVC002 04/03 Q1015=
METAR EPKK 271230Z 05004KT CAVOK 17/08 Q1013=
METAR EPKT 271230Z 25004KT 180V320 CAVOK 18/06 Q1012=
METAR EPLB 271230Z 17008KT 140V200 CAVOK 17/08 Q1015=
METAR EPLL 271230Z 26004KT CAVOK 15/06 Q1013=
METAR EPMO 271230Z 16008KT CAVOK 16/09 Q1013=
METAR EPPO 271230Z 04005KT 4700 BR OVC005 08/07 Q1014=
METAR EPRZ 271230Z 17007KT 140V210 CAVOK 18/06 Q1014=
METAR EPWA 271230Z 15007KT 110V210 CAVOK 16/08 Q1013 NOSIG=
METAR EPWR 271230Z 28003KT 250V320 3000 BR OVC002 06/06 Q1014=
METAR LHBP 271230Z 11006KT 070V140 CAVOK 15/08 Q1014 NOSIG=
METAR LHPR 271215Z AUTO 13011KT CAVOK 15/09 Q1013 NOSIG=
METAR LHSM 271215Z AUTO 05004KT 340V090 CAVOK 13/08 Q1013 NOSIG=
SPECI LKBC 271234Z AUTO VRB02KT //// // SCT010 SCT140 07/04 Q1011=
METAR LKCR 271230Z AUTO 31004KT 280V340 4400 BR OVC003 05/04 Q1012=
METAR LKCS 271230Z AUTO 34003KT 240V050 9999 OVC012/// 06/03 Q1011=
METAR LKCV 271230Z 30006KT 5000 BR OVC006 05/03 Q1013 NOSIG RMK YLO YLO=
METAR LKKB 271230Z 36004KT 300V040 7000 SCT007 OVC011 07/04 Q1012 NOSIG RMK GRN GRN=
METAR LKKU 271200Z 16013KT 9999 FEW035 16/08 Q1012=
METAR LKKV 271230Z 09008KT 9999 FEW019 08/03 Q1012=
METAR LKLN 271230Z AUTO 06007KT 350V090 9999 // BKN082 08/04 Q1012=
METAR LKMT 271230Z VRB02KT 9999 FEW040 16/08 Q1012 NOSIG=
METAR LKNA 271230Z 14013KT 9999 SCT021 BKN250 12/07 Q1011 NOSIG RMK BLU BLU=
METAR LKPD 271230Z 29004KT 240V320 3500 BR OVC005 05/04 Q1012 NOSIG RMK YLO YLO=
METAR LKPJ 271230Z AUTO 19004KT 140V240 9999 // FEW037/// 15/08 Q1012=
METAR LKPR 271230Z 03005KT 350V070 7000 BKN009 06/04 Q1012 BECMG BKN012=
METAR LKTB 271230Z 13010KT 9999 FEW027 14/07 Q1012 NOSIG=
METAR LKTH 271230Z AUTO VRB04KT 9999 BKN024 OVC027 12/07 Q1012=
METAR LKVO NIL
METAR LOWG 271220Z AUTO 20004KT 170V230 9999 -RA FEW048 SCT050 BKN060 11/03 Q1012 NOSIG=
METAR LOWI 271220Z 28004KT 240V320 9999 FEW050 SCT080 12/05 Q1008 NOSIG=
METAR LOWK 271220Z AUTO VRB02KT 9999 -DZ FEW044 BKN050 BKN060 07/03 Q1013 NOSIG=
METAR LOWL 271220Z AUTO 28006KT 9999 NCD 09/05 Q1010 NOSIG=
METAR LOWS 271220Z VRB02KT 9999 FEW010 BKN012 06/03 Q1010 NOSIG=
METAR LOWW 271220Z 13016KT CAVOK 14/07 Q1011 NOSIG=
METAR LOXT 271220Z 33002KT 50KM FEW030CU BKN170AC 12/05 Q1011 NOSIG RMK WIND INFO EST/BKN=
METAR LOXZ 271220Z VRB01KT 9999 FEW045 SCT055 BKN120 08/01 Q1012 NOSIG=
METAR LZIB 271230Z 11009KT 9999 SCT019 13/09 Q1013 NOSIG=
METAR LZKZ 271230Z 21010KT CAVOK 18/05 Q1015 NOSIG=
METAR LZMC 271200Z 13010G20KT 8000 FEW014 BKN200 14/08 Q1012=
METAR LZPP 271230Z 15009KT 120V180 CAVOK 15/08 Q1012=
METAR LZSL 271200Z 12006KT 9999 FEW060 SCT100 14/06 Q1014=
METAR LZTT 271230Z VRB02KT 9999 FEW046 12/05 Q1015 NOSIG=
METAR LZZI 271230Z 17006KT 130V220 9999 FEW035 16/06 Q1013=